Impacts TAF Board
For situational awareness. Not to be used for flight planning purposes.
IDs:

KMSP - Minneapolis-St Paul, MN, US

Issued at 0520 UTC 27 Feb 2020
Updated at 0708 UTC 27 Feb 2020
Potential Impact None Slight Moderate High
Time<<27/20Z 27/21Z 27/22Z 27/23Z 28/00Z 28/01Z 28/02Z 28/03Z 28/04Z 28/05Z 28/06Z 28/07Z 28/08Z>>
Type PRVL PRVL PRVL PRVL PRVL PRVL PRVL PRVL PRVL PRVL PRVL PRVL PRVL
VIS >6 >6 >6 >6 >6 >6 >6 >6 >6 >6 >6 >6 >6
CIG 35 35 35 35 35 35 35 35 35 35 35 35 35
Cover OVC OVC OVC OVC OVC OVC OVC OVC OVC OVC OVC BKN BKN
FltCat VFR VFR VFR VFR VFR VFR VFR VFR VFR VFR VFR VFR VFR
WX -- -- -- -- -- -- -- -- -- -- -- -- --
WDir 300 300 300 300 300 300 300 300 300 300 300 270 270
WSpd 3 3 3 3 3 3 3 3 3 3 3 3 3
WGst -- -- -- -- -- -- -- -- -- -- -- -- --
Raw TAF
KMSP 270520Z 2706/2812 30003KT P6SM SCT025 OVC035
  FM280700 27003KT P6SM BKN035


METAR Board
Radar Display
Forecast Discussion
For situational awareness. Not to be used for flight planning purposes.